createdAt,value
2018-07-26T00:00:06.070Z,11.40
2018-07-26T00:02:33.665Z,11.30
2018-07-26T00:05:01.179Z,11.30
2018-07-26T00:07:29.392Z,10.63
2018-07-26T00:09:57.402Z,10.93
2018-07-26T00:12:25.651Z,11.17
2018-07-26T00:14:53.305Z,10.90
2018-07-26T00:17:21.014Z,10.40
2018-07-26T00:19:48.711Z,10.80
2018-07-26T00:22:16.390Z,10.57
2018-07-26T00:24:44.702Z,11.53
2018-07-26T00:27:12.804Z,11.47
2018-07-26T00:29:40.837Z,16.00
2018-07-26T00:32:08.470Z,11.20
2018-07-26T00:34:37.054Z,50.60
2018-07-26T00:37:04.966Z,12.47
2018-07-26T00:39:32.778Z,11.73
2018-07-26T00:42:00.345Z,12.00
2018-07-26T00:44:27.983Z,12.60
2018-07-26T00:46:55.542Z,10.07
2018-07-26T00:49:23.145Z,11.30
2018-07-26T00:51:50.719Z,10.73
2018-07-26T00:54:18.329Z,9.97
2018-07-26T00:56:45.919Z,10.73
2018-07-26T00:59:13.705Z,10.77
2018-07-26T01:01:41.374Z,10.90
2018-07-26T01:04:09.054Z,10.40
2018-07-26T01:06:36.608Z,10.60
2018-07-26T01:09:07.534Z,10.70
2018-07-26T01:11:35.159Z,10.47
2018-07-26T01:14:03.277Z,10.20
2018-07-26T01:16:30.903Z,9.87
2018-07-26T01:18:58.742Z,10.20
2018-07-26T01:21:26.497Z,11.20
2018-07-26T01:23:54.079Z,10.20
2018-07-26T01:26:21.717Z,11.17
2018-07-26T01:28:49.986Z,10.43
2018-07-26T01:31:17.681Z,10.67
2018-07-26T01:33:45.406Z,10.73
2018-07-26T01:36:13.697Z,10.70
2018-07-26T01:38:41.349Z,10.30
2018-07-26T01:41:09.075Z,10.90
2018-07-26T01:43:49.297Z,10.17
2018-07-26T01:46:18.160Z,10.17
2018-07-26T01:48:45.766Z,10.57
2018-07-26T01:51:14.329Z,10.60
2018-07-26T01:53:42.746Z,10.73
2018-07-26T01:56:10.469Z,10.73
2018-07-26T01:58:38.072Z,9.70
2018-07-26T02:01:07.357Z,10.53
2018-07-26T02:03:35.028Z,11.10
2018-07-26T02:06:02.905Z,9.63
2018-07-26T02:08:30.870Z,10.33
2018-07-26T02:10:59.525Z,9.70
2018-07-26T02:13:27.275Z,9.83
2018-07-26T02:15:55.599Z,10.73
2018-07-26T02:18:23.272Z,10.30
2018-07-26T02:20:52.043Z,10.17
2018-07-26T02:23:20.292Z,10.57
2018-07-26T02:25:48.242Z,10.90
2018-07-26T02:28:17.595Z,10.60
2018-07-26T02:30:45.817Z,11.00
2018-07-26T02:33:13.564Z,10.17
2018-07-26T02:35:41.832Z,11.70
2018-07-26T02:38:09.796Z,10.93
2018-07-26T02:40:37.686Z,10.33
2018-07-26T02:43:06.096Z,10.70
2018-07-26T02:45:33.917Z,11.30
2018-07-26T02:48:01.503Z,10.97
2018-07-26T02:50:29.194Z,11.23
2018-07-26T02:52:56.870Z,11.40
2018-07-26T02:55:24.530Z,11.70
2018-07-26T02:57:52.179Z,11.37
2018-07-26T03:00:19.835Z,10.60
2018-07-26T03:02:47.394Z,11.50
2018-07-26T03:05:15.770Z,11.60
2018-07-26T03:07:43.354Z,11.33
2018-07-26T03:10:11.016Z,11.67
2018-07-26T03:12:38.684Z,11.30
2018-07-26T03:15:07.173Z,10.40
2018-07-26T03:17:34.860Z,11.20
2018-07-26T03:20:02.742Z,10.93
2018-07-26T03:22:31.401Z,10.73
2018-07-26T03:24:59.083Z,11.33
2018-07-26T03:27:26.723Z,11.80
2018-07-26T03:29:54.992Z,11.63
2018-07-26T03:32:23.273Z,10.10
2018-07-26T03:34:50.916Z,10.77
2018-07-26T03:37:18.503Z,11.20
2018-07-26T03:39:46.068Z,10.10
2018-07-26T03:42:13.830Z,10.27
2018-07-26T03:44:41.401Z,11.57
2018-07-26T03:47:09.038Z,11.43
2018-07-26T03:49:36.607Z,10.27
2018-07-26T03:52:04.570Z,10.43
2018-07-26T03:54:32.166Z,11.60
2018-07-26T03:56:59.741Z,10.87
2018-07-26T03:59:27.566Z,10.60
2018-07-26T04:01:55.205Z,11.30
2018-07-26T04:04:23.011Z,11.03
2018-07-26T04:06:50.616Z,11.13
2018-07-26T04:09:18.270Z,10.03
2018-07-26T04:11:46.366Z,10.80
2018-07-26T04:14:14.120Z,10.50
2018-07-26T04:16:41.689Z,10.27
2018-07-26T04:19:10.326Z,10.40
2018-07-26T04:21:39.493Z,10.20
2018-07-26T04:24:07.251Z,11.17
2018-07-26T04:26:35.661Z,11.40
2018-07-26T04:29:03.858Z,9.90
2018-07-26T04:31:31.517Z,10.80
2018-07-26T04:33:59.192Z,11.10
2018-07-26T04:36:26.801Z,11.33
2018-07-26T04:38:54.461Z,11.03
2018-07-26T04:41:22.501Z,11.27
2018-07-26T04:43:50.075Z,11.90
2018-07-26T04:46:17.661Z,12.90
2018-07-26T04:48:45.767Z,11.90
2018-07-26T04:51:14.061Z,11.80
2018-07-26T04:53:42.046Z,11.20
2018-07-26T04:56:09.645Z,11.70
2018-07-26T04:58:37.345Z,11.50
2018-07-26T05:01:05.666Z,11.77
2018-07-26T05:03:33.280Z,11.17
2018-07-26T05:06:00.933Z,11.67
2018-07-26T05:08:28.517Z,11.77
2018-07-26T05:10:56.164Z,10.93
2018-07-26T05:13:24.363Z,12.10
2018-07-26T05:18:26.436Z,11.97
2018-07-26T05:20:54.005Z,12.27
2018-07-26T05:23:21.465Z,12.40
2018-07-26T05:25:49.160Z,13.10
2018-07-26T05:28:16.809Z,14.63
2018-07-26T05:30:44.414Z,13.97
2018-07-26T05:33:12.042Z,13.37
2018-07-26T05:35:39.782Z,13.83
2018-07-26T05:38:07.337Z,12.87
2018-07-26T05:40:35.057Z,13.00
2018-07-26T05:43:02.717Z,11.27
2018-07-26T05:45:30.292Z,10.73
2018-07-26T05:47:57.957Z,10.07
2018-07-26T05:50:25.626Z,10.30
2018-07-26T05:52:55.390Z,10.37
2018-07-26T05:55:22.967Z,9.70
2018-07-26T05:57:50.578Z,8.60
2018-07-26T06:00:18.228Z,7.00
2018-07-26T06:02:45.992Z,8.20
2018-07-26T06:05:14.500Z,8.13
2018-07-26T06:07:42.090Z,7.47
2018-07-26T06:10:09.768Z,7.30
2018-07-26T06:12:39.450Z,6.47
2018-07-26T06:15:09.701Z,6.20
2018-07-26T06:17:37.444Z,6.03
2018-07-26T06:20:07.057Z,6.80
2018-07-26T06:22:34.670Z,7.03
2018-07-26T06:25:03.003Z,6.03
2018-07-26T06:27:30.605Z,6.13
2018-07-26T06:29:58.313Z,6.00
2018-07-26T06:32:25.998Z,6.30
2018-07-26T06:34:53.567Z,6.50
2018-07-26T06:37:21.253Z,5.13
2018-07-26T06:39:48.990Z,5.90
2018-07-26T06:42:16.602Z,5.40
2018-07-26T06:44:44.160Z,5.37
2018-07-26T06:47:13.079Z,4.70
2018-07-26T06:49:41.322Z,5.10
2018-07-26T06:52:08.982Z,4.90
2018-07-26T06:54:36.625Z,4.20
2018-07-26T06:57:04.233Z,4.60
2018-07-26T06:59:31.933Z,3.90
2018-07-26T07:01:59.754Z,4.93
2018-07-26T07:04:27.426Z,4.43
2018-07-26T07:06:55.044Z,4.53
2018-07-26T07:09:22.852Z,4.00
2018-07-26T07:11:51.407Z,4.60
2018-07-26T07:14:19.688Z,4.47
2018-07-26T07:16:47.310Z,5.33
2018-07-26T07:19:14.933Z,4.70
2018-07-26T07:21:43.229Z,4.70
2018-07-26T07:24:15.586Z,4.17
2018-07-26T07:26:43.249Z,3.80
2018-07-26T07:29:11.606Z,4.60
2018-07-26T07:31:39.263Z,4.13
2018-07-26T07:34:07.625Z,18.70
2018-07-26T07:36:36.177Z,3.87
2018-07-26T07:39:06.437Z,4.00
2018-07-26T07:41:34.009Z,4.97
2018-07-26T07:44:01.732Z,4.57
2018-07-26T07:46:29.367Z,4.57
2018-07-26T07:48:58.023Z,3.60
2018-07-26T07:51:25.706Z,3.73
2018-07-26T07:53:53.940Z,4.30
2018-07-26T07:56:21.772Z,4.40
2018-07-26T07:58:49.537Z,3.60
2018-07-26T08:01:17.122Z,3.47
2018-07-26T08:03:45.315Z,3.57
2018-07-26T08:06:13.595Z,3.10
2018-07-26T08:08:41.192Z,3.17
2018-07-26T08:11:09.571Z,3.30
2018-07-26T08:13:37.477Z,2.67
2018-07-26T08:16:05.660Z,2.80
2018-07-26T08:18:33.909Z,2.87
2018-07-26T08:21:01.611Z,2.27
2018-07-26T08:23:29.247Z,2.37
2018-07-26T08:25:57.808Z,2.57
2018-07-26T08:28:26.188Z,2.63
2018-07-26T08:30:53.888Z,3.10
2018-07-26T08:33:21.484Z,2.40
2018-07-26T08:35:49.145Z,2.67
2018-07-26T08:38:16.853Z,2.20
2018-07-26T08:40:44.565Z,2.70
2018-07-26T08:43:12.179Z,2.40
2018-07-26T08:45:40.461Z,2.70
2018-07-26T08:48:08.147Z,3.20
2018-07-26T08:50:35.775Z,3.23
2018-07-26T08:53:03.461Z,2.40
2018-07-26T08:55:31.066Z,2.60
2018-07-26T08:57:58.910Z,2.73
2018-07-26T09:00:26.739Z,3.40
2018-07-26T09:02:54.510Z,2.80
2018-07-26T09:05:22.046Z,3.10
2018-07-26T09:07:49.674Z,3.10
2018-07-26T09:10:17.382Z,3.20
2018-07-26T09:12:44.982Z,3.10
2018-07-26T09:15:13.266Z,2.97
2018-07-26T09:17:40.946Z,3.30
2018-07-26T09:20:08.590Z,3.00
2018-07-26T09:22:36.428Z,3.27
2018-07-26T09:25:04.084Z,3.43
2018-07-26T09:27:31.750Z,3.27
2018-07-26T09:29:59.573Z,2.90
2018-07-26T09:32:27.152Z,3.40
2018-07-26T09:34:54.802Z,3.67
2018-07-26T09:37:22.301Z,3.13
2018-07-26T09:39:50.187Z,2.73
2018-07-26T09:42:17.806Z,2.40
2018-07-26T09:44:45.446Z,3.20
2018-07-26T09:47:13.182Z,3.00
2018-07-26T09:49:40.771Z,3.00
2018-07-26T09:52:08.564Z,4.40
2018-07-26T09:54:36.214Z,3.80
2018-07-26T09:57:03.822Z,3.70
2018-07-26T09:59:31.388Z,3.10
2018-07-26T10:01:58.969Z,2.80
2018-07-26T10:04:26.601Z,3.20
2018-07-26T10:06:54.247Z,3.17
2018-07-26T10:09:22.189Z,3.10
2018-07-26T10:11:49.991Z,3.10
2018-07-26T10:14:17.469Z,3.50
2018-07-26T10:16:45.083Z,3.60
2018-07-26T10:19:12.667Z,2.70
2018-07-26T10:21:40.331Z,2.97
2018-07-26T10:24:08.626Z,3.63
2018-07-26T10:26:36.390Z,3.53
2018-07-26T10:29:04.831Z,3.73
2018-07-26T10:44:37.054Z,3.50
2018-07-26T10:47:05.273Z,3.50
2018-07-26T10:49:32.989Z,4.20
2018-07-26T10:52:00.522Z,3.53
2018-07-26T10:54:28.207Z,3.20
2018-07-26T10:56:55.874Z,3.07
2018-07-26T10:59:24.160Z,3.80
2018-07-26T11:01:51.900Z,4.33
2018-07-26T11:04:19.603Z,3.10
2018-07-26T11:06:48.018Z,3.67
2018-07-26T11:09:15.581Z,3.20
2018-07-26T11:11:43.270Z,4.00
2018-07-26T11:14:10.837Z,3.30
2018-07-26T11:16:38.849Z,3.80
2018-07-26T11:19:06.780Z,3.80
2018-07-26T11:21:34.385Z,3.60
2018-07-26T11:24:02.157Z,3.60
2018-07-26T11:26:29.898Z,3.63
2018-07-26T11:28:58.753Z,3.97
2018-07-26T11:31:26.480Z,3.90
2018-07-26T11:33:54.022Z,3.60
2018-07-26T11:36:21.757Z,3.60
2018-07-26T11:38:49.579Z,3.53
2018-07-26T11:41:17.380Z,3.33
2018-07-26T11:43:45.028Z,3.77
2018-07-26T11:46:12.778Z,4.57
2018-07-26T11:48:41.088Z,3.80
2018-07-26T11:51:09.129Z,3.57
2018-07-26T11:53:36.778Z,2.90
2018-07-26T11:56:04.674Z,3.80
2018-07-26T11:58:32.333Z,3.40
2018-07-26T12:00:59.989Z,3.20
2018-07-26T12:03:28.569Z,3.57
2018-07-26T12:05:56.286Z,3.40
2018-07-26T12:08:24.041Z,3.77
2018-07-26T12:10:51.716Z,3.63
2018-07-26T12:13:19.374Z,3.20
2018-07-26T12:15:47.422Z,3.07
2018-07-26T12:18:15.153Z,3.80
2018-07-26T12:20:43.253Z,2.93
2018-07-26T12:23:11.504Z,3.33
2018-07-26T12:25:39.387Z,3.07
2018-07-26T12:28:08.138Z,2.90
2018-07-26T12:30:35.943Z,3.57
2018-07-26T12:33:03.591Z,3.80
2018-07-26T12:35:31.165Z,3.50
2018-07-26T12:37:58.737Z,3.70
2018-07-26T12:40:26.768Z,3.50
2018-07-26T12:42:54.827Z,4.20
2018-07-26T12:45:22.394Z,4.40
2018-07-26T12:47:50.020Z,4.07
2018-07-26T12:50:17.705Z,4.20
2018-07-26T12:52:45.310Z,3.10
2018-07-26T12:55:13.379Z,3.30
2018-07-26T12:57:40.991Z,3.30
2018-07-26T13:00:08.617Z,3.40
2018-07-26T13:02:36.250Z,3.40
2018-07-26T13:05:03.962Z,3.07
2018-07-26T13:07:31.648Z,3.60
2018-07-26T13:09:59.270Z,3.70
2018-07-26T13:12:27.036Z,3.30
2018-07-26T13:14:54.718Z,3.43
2018-07-26T13:41:53.823Z,3.80
2018-07-26T13:44:21.462Z,3.13
2018-07-26T13:46:49.070Z,3.50
2018-07-26T13:49:17.438Z,3.90
2018-07-26T13:51:45.083Z,4.17
2018-07-26T13:54:13.100Z,3.57
2018-07-26T13:56:41.574Z,3.30
2018-07-26T13:59:09.195Z,3.60
2018-07-26T14:01:37.014Z,4.40
2018-07-26T14:04:04.777Z,3.00
2018-07-26T14:06:32.503Z,4.20
2018-07-26T14:09:00.312Z,3.73
2018-07-26T14:11:27.944Z,3.83
2018-07-26T14:13:55.557Z,3.47
2018-07-26T14:16:23.374Z,3.50
2018-07-26T14:18:50.996Z,3.47
2018-07-26T14:21:18.652Z,3.97
2018-07-26T14:23:51.153Z,4.10
2018-07-26T14:26:18.777Z,3.93
2018-07-26T14:28:46.350Z,4.10
2018-07-26T14:31:13.957Z,4.20
2018-07-26T14:33:41.725Z,3.50
2018-07-26T14:36:09.337Z,3.70
2018-07-26T14:41:11.532Z,3.80
2018-07-26T14:43:39.176Z,3.43
2018-07-26T14:46:07.233Z,4.23
2018-07-26T14:48:35.769Z,4.03
2018-07-26T14:51:03.593Z,4.10
2018-07-26T14:53:31.174Z,4.07
2018-07-26T14:55:58.856Z,3.73
2018-07-26T14:58:26.681Z,3.50
2018-07-26T15:00:54.412Z,4.67
2018-07-26T15:03:22.247Z,4.00
2018-07-26T15:05:49.985Z,3.83
2018-07-26T15:08:17.608Z,3.90
2018-07-26T15:10:48.497Z,4.07
2018-07-26T15:13:18.929Z,4.50
2018-07-26T15:15:46.533Z,4.47
2018-07-26T15:18:14.126Z,3.70
2018-07-26T15:20:42.074Z,3.67
2018-07-26T15:23:09.642Z,4.00
2018-07-26T15:25:37.211Z,3.50
2018-07-26T15:28:05.615Z,4.43
2018-07-26T15:30:33.917Z,4.10
2018-07-26T15:33:01.499Z,3.73
2018-07-26T15:35:29.113Z,3.90
2018-07-26T15:37:56.808Z,3.47
2018-07-26T15:40:24.463Z,4.10
2018-07-26T15:42:52.109Z,3.93
2018-07-26T15:45:19.686Z,4.00
2018-07-26T15:47:47.507Z,4.33
2018-07-26T15:50:15.290Z,3.60
2018-07-26T15:52:42.945Z,4.00
2018-07-26T15:55:10.698Z,3.90
2018-07-26T15:57:38.342Z,4.10
2018-07-26T16:00:08.958Z,4.47
2018-07-26T16:02:36.769Z,4.40
2018-07-26T16:05:05.045Z,4.40
2018-07-26T16:07:32.615Z,3.57
2018-07-26T16:10:00.900Z,4.27
2018-07-26T16:12:28.697Z,3.70
2018-07-26T16:14:56.290Z,3.57
2018-07-26T16:17:24.120Z,4.37
2018-07-26T16:19:51.754Z,4.07
2018-07-26T16:22:20.038Z,3.90
2018-07-26T16:24:48.293Z,4.70
2018-07-26T16:27:15.879Z,4.47
2018-07-26T16:29:44.037Z,4.43
2018-07-26T16:32:11.773Z,4.30
2018-07-26T16:34:40.958Z,4.10
2018-07-26T16:37:08.846Z,4.03
2018-07-26T16:39:36.557Z,4.23
2018-07-26T16:42:04.212Z,4.33
2018-07-26T16:44:31.890Z,4.00
2018-07-26T16:47:00.190Z,4.20
2018-07-26T16:49:28.630Z,4.00
2018-07-26T16:51:56.197Z,3.87
2018-07-26T16:54:23.942Z,4.70
2018-07-26T16:56:51.528Z,3.83
2018-07-26T16:59:19.241Z,4.00
2018-07-26T17:01:46.893Z,4.17
2018-07-26T17:04:14.507Z,4.53
2018-07-26T17:06:42.228Z,4.10
2018-07-26T17:09:10.757Z,4.40
2018-07-26T17:11:38.597Z,4.67
2018-07-26T17:14:08.491Z,5.00
2018-07-26T17:16:38.465Z,4.13
2018-07-26T17:19:06.143Z,5.20
2018-07-26T17:21:33.734Z,4.37
2018-07-26T17:24:02.133Z,4.07
2018-07-26T17:26:30.647Z,4.40
2018-07-26T17:28:58.383Z,4.50
2018-07-26T17:31:26.309Z,4.17
2018-07-26T17:33:54.364Z,3.70
2018-07-26T17:36:22.001Z,4.03
2018-07-26T17:38:50.610Z,4.97
2018-07-26T17:41:19.019Z,4.50
2018-07-26T17:43:46.788Z,4.30
2018-07-26T17:46:14.341Z,4.00
2018-07-26T17:48:41.982Z,3.90
2018-07-26T17:51:09.551Z,3.70
2018-07-26T17:53:37.198Z,4.90
2018-07-26T17:56:05.625Z,4.00
2018-07-26T17:58:33.213Z,4.07
2018-07-26T18:01:00.997Z,3.93
2018-07-26T18:03:28.722Z,4.50
2018-07-26T18:05:56.324Z,4.80
2018-07-26T18:08:24.035Z,4.67
2018-07-26T18:10:52.467Z,4.40
2018-07-26T18:13:20.303Z,4.40
2018-07-26T18:15:47.880Z,4.27
2018-07-26T18:18:17.217Z,4.27
2018-07-26T18:20:44.938Z,4.73
2018-07-26T18:23:13.067Z,4.37
2018-07-26T18:25:41.489Z,4.13
2018-07-26T18:28:09.471Z,4.30
2018-07-26T18:30:37.093Z,5.30
2018-07-26T18:33:04.949Z,5.50
2018-07-26T18:35:33.306Z,5.07
2018-07-26T18:38:01.877Z,4.70
2018-07-26T18:40:29.472Z,5.43
2018-07-26T18:42:57.115Z,4.63
2018-07-26T18:45:24.924Z,4.43
2018-07-26T18:47:52.699Z,4.63
2018-07-26T18:50:20.342Z,4.83
2018-07-26T18:52:47.980Z,4.80
2018-07-26T18:55:15.607Z,5.40
2018-07-26T18:57:43.300Z,5.30
2018-07-26T19:00:12.749Z,5.47
2018-07-26T19:02:40.945Z,5.53
2018-07-26T19:05:09.132Z,6.60
2018-07-26T19:07:37.599Z,5.83
2018-07-26T19:10:07.289Z,7.00
2018-07-26T19:12:35.793Z,6.60
2018-07-26T19:15:04.964Z,7.23
2018-07-26T19:17:33.583Z,7.23
2018-07-26T19:20:01.193Z,6.20
2018-07-26T19:22:28.841Z,6.30
2018-07-26T19:24:56.457Z,6.60
2018-07-26T19:27:24.742Z,7.30
2018-07-26T19:29:52.373Z,6.40
2018-07-26T19:32:20.452Z,6.63
2018-07-26T19:34:48.249Z,6.47
2018-07-26T19:37:16.131Z,6.20
